sensor_id;sensor_type;location;lat;lon;timestamp;temperature;humidity
7214;DHT22;3648;50.614;13.830;2022-09-09T00:01:13;14.30;1.00
7214;DHT22;3648;50.614;13.830;2022-09-09T00:03:47;14.40;1.00
7214;DHT22;3648;50.614;13.830;2022-09-09T00:06:20;14.50;1.00
7214;DHT22;3648;50.614;13.830;2022-09-09T00:08:57;14.50;1.00
7214;DHT22;3648;50.614;13.830;2022-09-09T00:11:32;14.40;1.00
7214;DHT22;3648;50.614;13.830;2022-09-09T00:14:03;14.30;1.00
7214;DHT22;3648;50.614;13.830;2022-09-09T00:16:41;14.10;1.00
7214;DHT22;3648;50.614;13.830;2022-09-09T00:19:20;14.10;1.00
7214;DHT22;3648;50.614;13.830;2022-09-09T00:21:57;14.30;1.00
7214;DHT22;3648;50.614;13.830;2022-09-09T00:24:34;14.30;1.00
7214;DHT22;3648;50.614;13.830;2022-09-09T00:27:08;14.20;1.00
7214;DHT22;3648;50.614;13.830;2022-09-09T00:29:43;14.30;1.00
7214;DHT22;3648;50.614;13.830;2022-09-09T00:32:14;14.20;1.00
7214;DHT22;3648;50.614;13.830;2022-09-09T00:34:47;14.10;1.00
7214;DHT22;3648;50.614;13.830;2022-09-09T00:37:15;14.00;1.00
7214;DHT22;3648;50.614;13.830;2022-09-09T00:39:45;13.90;1.00
7214;DHT22;3648;50.614;13.830;2022-09-09T00:42:16;13.80;1.00
7214;DHT22;3648;50.614;13.830;2022-09-09T00:44:56;13.70;1.00
7214;DHT22;3648;50.614;13.830;2022-09-09T00:47:44;13.60;1.00
7214;DHT22;3648;50.614;13.830;2022-09-09T00:50:39;13.80;1.00
7214;DHT22;3648;50.614;13.830;2022-09-09T00:53:20;13.70;1.00
7214;DHT22;3648;50.614;13.830;2022-09-09T00:55:59;13.50;1.00
7214;DHT22;3648;50.614;13.830;2022-09-09T00:58:31;13.50;1.00
7214;DHT22;3648;50.614;13.830;2022-09-09T01:01:02;13.50;1.00
7214;DHT22;3648;50.614;13.830;2022-09-09T01:03:35;13.40;1.00
7214;DHT22;3648;50.614;13.830;2022-09-09T01:06:16;13.40;1.00
7214;DHT22;3648;50.614;13.830;2022-09-09T01:08:57;13.60;1.00
7214;DHT22;3648;50.614;13.830;2022-09-09T01:11:33;13.40;1.00
7214;DHT22;3648;50.614;13.830;2022-09-09T01:14:14;13.20;1.00
7214;DHT22;3648;50.614;13.830;2022-09-09T01:16:44;13.10;1.00
7214;DHT22;3648;50.614;13.830;2022-09-09T01:19:20;13.20;1.00
7214;DHT22;3648;50.614;13.830;2022-09-09T01:21:55;13.20;1.00
7214;DHT22;3648;50.614;13.830;2022-09-09T01:24:29;13.10;1.00
7214;DHT22;3648;50.614;13.830;2022-09-09T01:27:05;13.10;1.00
7214;DHT22;3648;50.614;13.830;2022-09-09T01:29:33;13.20;1.00
7214;DHT22;3648;50.614;13.830;2022-09-09T01:32:01;13.20;1.00
7214;DHT22;3648;50.614;13.830;2022-09-09T01:34:32;13.20;1.00
7214;DHT22;3648;50.614;13.830;2022-09-09T01:37:02;13.30;1.00
7214;DHT22;3648;50.614;13.830;2022-09-09T01:39:32;13.30;1.00
7214;DHT22;3648;50.614;13.830;2022-09-09T01:42:01;13.20;1.00
7214;DHT22;3648;50.614;13.830;2022-09-09T01:44:30;13.20;1.00
7214;DHT22;3648;50.614;13.830;2022-09-09T01:46:57;13.20;1.00
7214;DHT22;3648;50.614;13.830;2022-09-09T01:49:24;13.20;1.00
7214;DHT22;3648;50.614;13.830;2022-09-09T01:51:53;13.20;1.00
7214;DHT22;3648;50.614;13.830;2022-09-09T01:54:26;13.20;1.00
7214;DHT22;3648;50.614;13.830;2022-09-09T01:57:05;13.20;1.00
7214;DHT22;3648;50.614;13.830;2022-09-09T01:59:50;13.20;1.00
7214;DHT22;3648;50.614;13.830;2022-09-09T02:02:24;13.40;1.00
7214;DHT22;3648;50.614;13.830;2022-09-09T02:04:56;13.50;1.00
7214;DHT22;3648;50.614;13.830;2022-09-09T02:07:34;13.60;1.00
7214;DHT22;3648;50.614;13.830;2022-09-09T02:10:10;13.60;1.00
7214;DHT22;3648;50.614;13.830;2022-09-09T02:12:42;13.60;1.00
7214;DHT22;3648;50.614;13.830;2022-09-09T02:15:15;13.60;1.00
7214;DHT22;3648;50.614;13.830;2022-09-09T02:17:46;13.50;1.00
7214;DHT22;3648;50.614;13.830;2022-09-09T02:20:14;13.50;1.00
7214;DHT22;3648;50.614;13.830;2022-09-09T02:22:44;13.50;1.00
7214;DHT22;3648;50.614;13.830;2022-09-09T02:25:14;13.50;1.00
7214;DHT22;3648;50.614;13.830;2022-09-09T02:27:45;13.40;1.00
7214;DHT22;3648;50.614;13.830;2022-09-09T02:30:14;13.40;1.00
7214;DHT22;3648;50.614;13.830;2022-09-09T02:32:42;13.40;1.00
7214;DHT22;3648;50.614;13.830;2022-09-09T02:35:13;13.40;1.00
7214;DHT22;3648;50.614;13.830;2022-09-09T02:37:42;13.30;1.00
7214;DHT22;3648;50.614;13.830;2022-09-09T02:40:12;13.30;1.00
7214;DHT22;3648;50.614;13.830;2022-09-09T02:42:41;13.20;1.00
7214;DHT22;3648;50.614;13.830;2022-09-09T02:45:12;13.10;1.00
7214;DHT22;3648;50.614;13.830;2022-09-09T02:47:45;13.00;1.00
7214;DHT22;3648;50.614;13.830;2022-09-09T02:50:17;12.90;1.00
7214;DHT22;3648;50.614;13.830;2022-09-09T02:53:00;13.00;1.00
7214;DHT22;3648;50.614;13.830;2022-09-09T02:55:38;13.00;1.00
7214;DHT22;3648;50.614;13.830;2022-09-09T02:58:07;12.90;1.00
7214;DHT22;3648;50.614;13.830;2022-09-09T03:00:38;12.90;1.00
7214;DHT22;3648;50.614;13.830;2022-09-09T03:03:07;12.90;1.00
7214;DHT22;3648;50.614;13.830;2022-09-09T03:05:35;12.90;1.00
7214;DHT22;3648;50.614;13.830;2022-09-09T03:08:02;13.00;1.00
7214;DHT22;3648;50.614;13.830;2022-09-09T03:10:29;13.00;1.00
7214;DHT22;3648;50.614;13.830;2022-09-09T03:12:56;13.00;1.00
7214;DHT22;3648;50.614;13.830;2022-09-09T03:15:24;12.90;1.00
7214;DHT22;3648;50.614;13.830;2022-09-09T03:17:57;12.90;1.00
7214;DHT22;3648;50.614;13.830;2022-09-09T03:20:24;13.00;1.00
7214;DHT22;3648;50.614;13.830;2022-09-09T03:22:52;12.90;1.00
7214;DHT22;3648;50.614;13.830;2022-09-09T03:25:20;13.00;1.00
7214;DHT22;3648;50.614;13.830;2022-09-09T03:27:49;13.00;1.00
7214;DHT22;3648;50.614;13.830;2022-09-09T03:30:18;12.90;1.00
7214;DHT22;3648;50.614;13.830;2022-09-09T03:32:45;12.70;1.00
7214;DHT22;3648;50.614;13.830;2022-09-09T03:35:14;12.50;1.00
7214;DHT22;3648;50.614;13.830;2022-09-09T03:37:41;12.50;1.00
7214;DHT22;3648;50.614;13.830;2022-09-09T03:40:09;12.40;1.00
7214;DHT22;3648;50.614;13.830;2022-09-09T03:42:36;12.40;1.00
7214;DHT22;3648;50.614;13.830;2022-09-09T03:45:05;12.40;1.00
7214;DHT22;3648;50.614;13.830;2022-09-09T03:47:32;12.40;1.00
7214;DHT22;3648;50.614;13.830;2022-09-09T03:49:59;12.30;1.00
7214;DHT22;3648;50.614;13.830;2022-09-09T03:52:28;12.30;1.00
7214;DHT22;3648;50.614;13.830;2022-09-09T03:54:56;12.40;1.00
7214;DHT22;3648;50.614;13.830;2022-09-09T03:57:23;12.40;1.00
7214;DHT22;3648;50.614;13.830;2022-09-09T03:59:50;12.40;1.00
7214;DHT22;3648;50.614;13.830;2022-09-09T04:02:17;12.40;1.00
7214;DHT22;3648;50.614;13.830;2022-09-09T04:04:44;12.50;1.00
7214;DHT22;3648;50.614;13.830;2022-09-09T04:07:13;12.60;1.00
7214;DHT22;3648;50.614;13.830;2022-09-09T04:09:41;12.50;1.00
7214;DHT22;3648;50.614;13.830;2022-09-09T04:12:08;12.50;1.00
7214;DHT22;3648;50.614;13.830;2022-09-09T04:14:38;12.60;1.00
7214;DHT22;3648;50.614;13.830;2022-09-09T04:17:06;12.70;1.00
7214;DHT22;3648;50.614;13.830;2022-09-09T04:19:33;12.70;1.00
7214;DHT22;3648;50.614;13.830;2022-09-09T04:22:01;12.80;1.00
7214;DHT22;3648;50.614;13.830;2022-09-09T04:24:28;12.80;1.00
7214;DHT22;3648;50.614;13.830;2022-09-09T04:26:56;12.80;1.00
7214;DHT22;3648;50.614;13.830;2022-09-09T04:29:24;12.90;1.00
7214;DHT22;3648;50.614;13.830;2022-09-09T04:31:51;12.90;1.00
7214;DHT22;3648;50.614;13.830;2022-09-09T04:34:18;13.00;1.00
7214;DHT22;3648;50.614;13.830;2022-09-09T04:36:45;13.00;1.00
7214;DHT22;3648;50.614;13.830;2022-09-09T04:39:13;13.00;1.00
7214;DHT22;3648;50.614;13.830;2022-09-09T04:41:40;13.00;1.00
7214;DHT22;3648;50.614;13.830;2022-09-09T04:44:08;13.00;1.00
7214;DHT22;3648;50.614;13.830;2022-09-09T04:46:36;12.90;1.00
7214;DHT22;3648;50.614;13.830;2022-09-09T04:49:03;12.90;1.00
7214;DHT22;3648;50.614;13.830;2022-09-09T04:51:30;12.90;1.00
7214;DHT22;3648;50.614;13.830;2022-09-09T04:53:58;13.00;1.00
7214;DHT22;3648;50.614;13.830;2022-09-09T04:56:25;13.00;1.00
7214;DHT22;3648;50.614;13.830;2022-09-09T04:58:53;13.00;1.00
7214;DHT22;3648;50.614;13.830;2022-09-09T05:01:22;13.00;1.00
7214;DHT22;3648;50.614;13.830;2022-09-09T05:03:51;12.90;1.00
7214;DHT22;3648;50.614;13.830;2022-09-09T05:06:20;12.90;1.00
7214;DHT22;3648;50.614;13.830;2022-09-09T05:08:48;13.00;1.00
7214;DHT22;3648;50.614;13.830;2022-09-09T05:11:19;12.90;1.00
7214;DHT22;3648;50.614;13.830;2022-09-09T05:13:47;12.90;1.00
7214;DHT22;3648;50.614;13.830;2022-09-09T05:16:16;12.90;1.00
7214;DHT22;3648;50.614;13.830;2022-09-09T05:18:44;13.00;1.00
7214;DHT22;3648;50.614;13.830;2022-09-09T05:21:13;13.00;1.00
7214;DHT22;3648;50.614;13.830;2022-09-09T05:23:40;13.10;1.00
7214;DHT22;3648;50.614;13.830;2022-09-09T05:26:12;13.10;1.00
7214;DHT22;3648;50.614;13.830;2022-09-09T05:28:39;13.20;1.00
7214;DHT22;3648;50.614;13.830;2022-09-09T05:31:08;13.40;1.00
7214;DHT22;3648;50.614;13.830;2022-09-09T05:33:37;13.50;1.00
7214;DHT22;3648;50.614;13.830;2022-09-09T05:36:09;13.60;1.00
7214;DHT22;3648;50.614;13.830;2022-09-09T05:38:36;13.70;1.00
7214;DHT22;3648;50.614;13.830;2022-09-09T05:41:04;13.80;1.00
7214;DHT22;3648;50.614;13.830;2022-09-09T05:43:31;13.80;1.00
7214;DHT22;3648;50.614;13.830;2022-09-09T05:46:03;13.80;1.00
7214;DHT22;3648;50.614;13.830;2022-09-09T05:48:31;13.90;1.00
7214;DHT22;3648;50.614;13.830;2022-09-09T05:51:00;13.90;1.00
7214;DHT22;3648;50.614;13.830;2022-09-09T05:53:30;13.80;1.00
7214;DHT22;3648;50.614;13.830;2022-09-09T05:56:00;13.80;1.00
7214;DHT22;3648;50.614;13.830;2022-09-09T05:58:29;13.80;1.00
7214;DHT22;3648;50.614;13.830;2022-09-09T06:01:01;13.80;1.00
7214;DHT22;3648;50.614;13.830;2022-09-09T06:03:28;13.80;1.00
7214;DHT22;3648;50.614;13.830;2022-09-09T06:06:00;13.90;1.00
7214;DHT22;3648;50.614;13.830;2022-09-09T06:08:28;14.00;1.00
7214;DHT22;3648;50.614;13.830;2022-09-09T06:11:01;14.10;1.00
7214;DHT22;3648;50.614;13.830;2022-09-09T06:13:30;14.10;1.00
7214;DHT22;3648;50.614;13.830;2022-09-09T06:15:58;14.10;1.00
7214;DHT22;3648;50.614;13.830;2022-09-09T06:18:25;14.20;1.00
7214;DHT22;3648;50.614;13.830;2022-09-09T06:20:57;14.30;1.00
7214;DHT22;3648;50.614;13.830;2022-09-09T06:23:24;14.40;1.00
7214;DHT22;3648;50.614;13.830;2022-09-09T06:26:01;14.50;1.00
7214;DHT22;3648;50.614;13.830;2022-09-09T06:28:28;14.60;1.00
7214;DHT22;3648;50.614;13.830;2022-09-09T06:30:58;14.80;1.00
7214;DHT22;3648;50.614;13.830;2022-09-09T06:33:25;14.80;1.00
7214;DHT22;3648;50.614;13.830;2022-09-09T06:35:53;14.80;1.00
7214;DHT22;3648;50.614;13.830;2022-09-09T06:38:22;14.90;1.00
7214;DHT22;3648;50.614;13.830;2022-09-09T06:40:54;15.00;1.00
7214;DHT22;3648;50.614;13.830;2022-09-09T06:43:23;15.00;1.00
7214;DHT22;3648;50.614;13.830;2022-09-09T06:45:55;15.00;1.00
7214;DHT22;3648;50.614;13.830;2022-09-09T06:48:22;15.00;1.00
7214;DHT22;3648;50.614;13.830;2022-09-09T06:50:51;15.00;1.00
7214;DHT22;3648;50.614;13.830;2022-09-09T06:53:19;15.00;1.00
7214;DHT22;3648;50.614;13.830;2022-09-09T06:55:46;14.90;1.00
7214;DHT22;3648;50.614;13.830;2022-09-09T06:58:15;14.90;1.00
7214;DHT22;3648;50.614;13.830;2022-09-09T07:00:42;14.90;1.00
7214;DHT22;3648;50.614;13.830;2022-09-09T07:03:10;14.90;1.00
7214;DHT22;3648;50.614;13.830;2022-09-09T07:05:37;14.90;1.00
7214;DHT22;3648;50.614;13.830;2022-09-09T07:08:04;14.90;1.00
7214;DHT22;3648;50.614;13.830;2022-09-09T07:10:32;15.00;1.00
7214;DHT22;3648;50.614;13.830;2022-09-09T07:12:59;15.10;1.00
7214;DHT22;3648;50.614;13.830;2022-09-09T07:15:29;15.20;1.00
7214;DHT22;3648;50.614;13.830;2022-09-09T07:18:01;15.20;1.00
7214;DHT22;3648;50.614;13.830;2022-09-09T07:20:28;15.30;1.00
7214;DHT22;3648;50.614;13.830;2022-09-09T07:22:55;15.40;1.00
7214;DHT22;3648;50.614;13.830;2022-09-09T07:25:24;15.50;1.00
7214;DHT22;3648;50.614;13.830;2022-09-09T07:27:52;15.60;1.00
7214;DHT22;3648;50.614;13.830;2022-09-09T07:30:20;15.70;1.00
7214;DHT22;3648;50.614;13.830;2022-09-09T07:32:51;15.80;1.00
7214;DHT22;3648;50.614;13.830;2022-09-09T07:35:18;15.90;1.00
7214;DHT22;3648;50.614;13.830;2022-09-09T07:37:45;16.00;1.00
7214;DHT22;3648;50.614;13.830;2022-09-09T07:40:13;16.10;1.00
7214;DHT22;3648;50.614;13.830;2022-09-09T07:42:40;16.20;1.00
7214;DHT22;3648;50.614;13.830;2022-09-09T07:45:07;16.20;1.00
7214;DHT22;3648;50.614;13.830;2022-09-09T07:47:35;16.30;1.00
7214;DHT22;3648;50.614;13.830;2022-09-09T07:50:04;16.30;1.00
7214;DHT22;3648;50.614;13.830;2022-09-09T07:52:31;16.30;1.00
7214;DHT22;3648;50.614;13.830;2022-09-09T07:54:58;16.40;1.00
7214;DHT22;3648;50.614;13.830;2022-09-09T07:57:25;16.50;1.00
7214;DHT22;3648;50.614;13.830;2022-09-09T07:59:53;16.70;1.00
7214;DHT22;3648;50.614;13.830;2022-09-09T08:02:20;16.80;1.00
7214;DHT22;3648;50.614;13.830;2022-09-09T08:04:47;16.90;1.00
7214;DHT22;3648;50.614;13.830;2022-09-09T08:07:15;16.90;1.00
7214;DHT22;3648;50.614;13.830;2022-09-09T08:09:42;17.00;1.00
7214;DHT22;3648;50.614;13.830;2022-09-09T08:12:10;17.10;1.00
7214;DHT22;3648;50.614;13.830;2022-09-09T08:14:38;17.20;1.00
7214;DHT22;3648;50.614;13.830;2022-09-09T08:17:06;17.30;1.00
7214;DHT22;3648;50.614;13.830;2022-09-09T08:19:33;17.40;1.00
7214;DHT22;3648;50.614;13.830;2022-09-09T08:22:01;17.50;1.00
7214;DHT22;3648;50.614;13.830;2022-09-09T08:24:30;17.60;1.00
7214;DHT22;3648;50.614;13.830;2022-09-09T08:26:57;17.60;1.00
7214;DHT22;3648;50.614;13.830;2022-09-09T08:29:24;17.60;1.00
7214;DHT22;3648;50.614;13.830;2022-09-09T08:31:53;17.70;1.00
7214;DHT22;3648;50.614;13.830;2022-09-09T08:34:20;17.70;1.00
7214;DHT22;3648;50.614;13.830;2022-09-09T08:36:49;17.70;1.00
7214;DHT22;3648;50.614;13.830;2022-09-09T08:39:18;17.70;1.00
7214;DHT22;3648;50.614;13.830;2022-09-09T08:42:03;17.70;1.00
7214;DHT22;3648;50.614;13.830;2022-09-09T08:44:42;17.70;1.00
7214;DHT22;3648;50.614;13.830;2022-09-09T08:47:21;17.70;1.00
7214;DHT22;3648;50.614;13.830;2022-09-09T08:50:01;17.70;1.00
7214;DHT22;3648;50.614;13.830;2022-09-09T08:52:32;17.80;1.00
7214;DHT22;3648;50.614;13.830;2022-09-09T08:55:13;18.00;1.00
7214;DHT22;3648;50.614;13.830;2022-09-09T08:57:44;18.10;1.00
7214;DHT22;3648;50.614;13.830;2022-09-09T09:00:12;18.30;1.00
7214;DHT22;3648;50.614;13.830;2022-09-09T09:02:44;18.40;1.00
7214;DHT22;3648;50.614;13.830;2022-09-09T09:05:19;18.50;1.00
7214;DHT22;3648;50.614;13.830;2022-09-09T09:07:56;18.60;1.00
7214;DHT22;3648;50.614;13.830;2022-09-09T09:10:39;18.60;1.00
7214;DHT22;3648;50.614;13.830;2022-09-09T09:13:17;18.80;1.00
7214;DHT22;3648;50.614;13.830;2022-09-09T09:15:50;18.80;1.00
7214;DHT22;3648;50.614;13.830;2022-09-09T09:18:19;18.80;1.00
7214;DHT22;3648;50.614;13.830;2022-09-09T09:20:54;18.80;1.00
7214;DHT22;3648;50.614;13.830;2022-09-09T09:23:25;18.90;1.00
7214;DHT22;3648;50.614;13.830;2022-09-09T09:25:58;19.00;1.00
7214;DHT22;3648;50.614;13.830;2022-09-09T09:28:32;19.10;1.00
7214;DHT22;3648;50.614;13.830;2022-09-09T09:31:04;19.10;1.00
7214;DHT22;3648;50.614;13.830;2022-09-09T09:33:37;19.20;1.00
7214;DHT22;3648;50.614;13.830;2022-09-09T09:36:07;19.20;1.00
7214;DHT22;3648;50.614;13.830;2022-09-09T09:38:35;19.40;1.00
7214;DHT22;3648;50.614;13.830;2022-09-09T09:41:03;19.60;1.00
7214;DHT22;3648;50.614;13.830;2022-09-09T09:43:33;19.70;1.00
7214;DHT22;3648;50.614;13.830;2022-09-09T09:46:03;19.90;1.00
7214;DHT22;3648;50.614;13.830;2022-09-09T09:48:31;20.00;1.00
7214;DHT22;3648;50.614;13.830;2022-09-09T09:51:00;20.40;1.00
7214;DHT22;3648;50.614;13.830;2022-09-09T09:53:29;20.50;1.00
7214;DHT22;3648;50.614;13.830;2022-09-09T09:55:59;20.70;1.00
7214;DHT22;3648;50.614;13.830;2022-09-09T09:58:27;20.90;1.00
7214;DHT22;3648;50.614;13.830;2022-09-09T10:01:00;21.00;1.00
7214;DHT22;3648;50.614;13.830;2022-09-09T10:03:30;21.20;1.00
7214;DHT22;3648;50.614;13.830;2022-09-09T10:05:57;21.00;1.00
7214;DHT22;3648;50.614;13.830;2022-09-09T10:08:25;21.10;1.00
7214;DHT22;3648;50.614;13.830;2022-09-09T10:11:12;21.10;1.00
7214;DHT22;3648;50.614;13.830;2022-09-09T10:13:51;21.20;1.00
7214;DHT22;3648;50.614;13.830;2022-09-09T10:16:40;21.30;1.00
7214;DHT22;3648;50.614;13.830;2022-09-09T10:19:16;21.20;1.00
7214;DHT22;3648;50.614;13.830;2022-09-09T10:22:02;21.30;1.00
7214;DHT22;3648;50.614;13.830;2022-09-09T10:24:54;21.30;1.00
7214;DHT22;3648;50.614;13.830;2022-09-09T10:27:29;21.40;1.00
7214;DHT22;3648;50.614;13.830;2022-09-09T10:30:09;21.40;1.00
7214;DHT22;3648;50.614;13.830;2022-09-09T10:32:46;21.40;1.00
7214;DHT22;3648;50.614;13.830;2022-09-09T10:35:25;21.30;1.00
7214;DHT22;3648;50.614;13.830;2022-09-09T10:40:58;21.20;1.00
7214;DHT22;3648;50.614;13.830;2022-09-09T10:43:52;21.10;1.00
7214;DHT22;3648;50.614;13.830;2022-09-09T10:46:26;21.10;1.00
7214;DHT22;3648;50.614;13.830;2022-09-09T10:49:09;21.10;1.00
7214;DHT22;3648;50.614;13.830;2022-09-09T10:51:45;21.20;1.00
7214;DHT22;3648;50.614;13.830;2022-09-09T10:54:28;21.20;1.00
7214;DHT22;3648;50.614;13.830;2022-09-09T10:57:00;21.20;1.00
7214;DHT22;3648;50.614;13.830;2022-09-09T10:59:31;21.30;1.00
7214;DHT22;3648;50.614;13.830;2022-09-09T11:02:03;21.30;1.00
7214;DHT22;3648;50.614;13.830;2022-09-09T11:04:41;21.30;1.00
7214;DHT22;3648;50.614;13.830;2022-09-09T11:07:12;21.30;1.00
7214;DHT22;3648;50.614;13.830;2022-09-09T11:09:45;21.30;1.00
7214;DHT22;3648;50.614;13.830;2022-09-09T11:12:18;21.40;1.00
7214;DHT22;3648;50.614;13.830;2022-09-09T11:14:48;21.40;1.00
7214;DHT22;3648;50.614;13.830;2022-09-09T11:17:20;21.30;1.00
7214;DHT22;3648;50.614;13.830;2022-09-09T11:19:50;21.40;1.00
7214;DHT22;3648;50.614;13.830;2022-09-09T11:22:27;21.50;1.00
7214;DHT22;3648;50.614;13.830;2022-09-09T11:24:59;21.50;1.00
7214;DHT22;3648;50.614;13.830;2022-09-09T11:27:31;21.50;1.00
7214;DHT22;3648;50.614;13.830;2022-09-09T11:30:16;21.60;1.00
7214;DHT22;3648;50.614;13.830;2022-09-09T11:33:04;21.60;1.00
7214;DHT22;3648;50.614;13.830;2022-09-09T11:35:47;21.70;1.00
7214;DHT22;3648;50.614;13.830;2022-09-09T11:38:25;21.70;1.00
7214;DHT22;3648;50.614;13.830;2022-09-09T11:41:01;21.70;1.00
7214;DHT22;3648;50.614;13.830;2022-09-09T11:43:31;21.70;1.00
7214;DHT22;3648;50.614;13.830;2022-09-09T11:46:02;21.60;1.00
7214;DHT22;3648;50.614;13.830;2022-09-09T11:48:33;21.60;1.00
7214;DHT22;3648;50.614;13.830;2022-09-09T11:51:05;21.50;1.00
7214;DHT22;3648;50.614;13.830;2022-09-09T11:53:33;21.50;1.00
7214;DHT22;3648;50.614;13.830;2022-09-09T11:56:09;21.40;1.00
7214;DHT22;3648;50.614;13.830;2022-09-09T11:58:40;21.40;1.00
7214;DHT22;3648;50.614;13.830;2022-09-09T12:01:16;21.40;1.00
7214;DHT22;3648;50.614;13.830;2022-09-09T12:03:46;21.40;1.00
7214;DHT22;3648;50.614;13.830;2022-09-09T12:06:30;21.50;1.00
7214;DHT22;3648;50.614;13.830;2022-09-09T12:09:06;21.50;1.00
7214;DHT22;3648;50.614;13.830;2022-09-09T12:11:34;21.60;1.00
7214;DHT22;3648;50.614;13.830;2022-09-09T12:14:01;21.80;1.00
7214;DHT22;3648;50.614;13.830;2022-09-09T12:16:31;21.80;1.00
7214;DHT22;3648;50.614;13.830;2022-09-09T12:19:12;21.90;1.00
7214;DHT22;3648;50.614;13.830;2022-09-09T12:21:48;21.90;1.00
7214;DHT22;3648;50.614;13.830;2022-09-09T12:24:22;22.00;1.00
7214;DHT22;3648;50.614;13.830;2022-09-09T12:26:56;22.00;1.00
7214;DHT22;3648;50.614;13.830;2022-09-09T12:29:29;21.90;1.00
7214;DHT22;3648;50.614;13.830;2022-09-09T12:32:04;22.00;1.00
7214;DHT22;3648;50.614;13.830;2022-09-09T12:34:38;22.00;1.00
7214;DHT22;3648;50.614;13.830;2022-09-09T12:37:14;22.00;1.00
7214;DHT22;3648;50.614;13.830;2022-09-09T12:39:45;22.00;1.00
7214;DHT22;3648;50.614;13.830;2022-09-09T12:42:20;22.20;1.00
7214;DHT22;3648;50.614;13.830;2022-09-09T12:44:55;22.20;1.00
7214;DHT22;3648;50.614;13.830;2022-09-09T12:47:26;22.40;1.00
7214;DHT22;3648;50.614;13.830;2022-09-09T12:49:55;22.60;1.00
7214;DHT22;3648;50.614;13.830;2022-09-09T12:52:29;22.60;1.00
7214;DHT22;3648;50.614;13.830;2022-09-09T12:55:01;22.70;1.00
7214;DHT22;3648;50.614;13.830;2022-09-09T12:57:34;22.70;1.00
7214;DHT22;3648;50.614;13.830;2022-09-09T13:00:10;22.60;1.00
7214;DHT22;3648;50.614;13.830;2022-09-09T13:02:47;22.50;1.00
7214;DHT22;3648;50.614;13.830;2022-09-09T13:05:18;22.30;1.00
7214;DHT22;3648;50.614;13.830;2022-09-09T13:07:47;22.30;1.00
7214;DHT22;3648;50.614;13.830;2022-09-09T13:10:21;22.40;1.00
7214;DHT22;3648;50.614;13.830;2022-09-09T13:12:49;22.40;1.00
7214;DHT22;3648;50.614;13.830;2022-09-09T13:15:21;22.40;1.00
7214;DHT22;3648;50.614;13.830;2022-09-09T13:17:53;22.40;1.00
7214;DHT22;3648;50.614;13.830;2022-09-09T13:20:22;22.40;1.00
7214;DHT22;3648;50.614;13.830;2022-09-09T13:22:53;22.40;1.00
7214;DHT22;3648;50.614;13.830;2022-09-09T13:25:25;22.50;1.00
7214;DHT22;3648;50.614;13.830;2022-09-09T13:27:57;22.50;1.00
7214;DHT22;3648;50.614;13.830;2022-09-09T13:30:28;22.50;1.00
7214;DHT22;3648;50.614;13.830;2022-09-09T13:33:01;22.30;1.00
7214;DHT22;3648;50.614;13.830;2022-09-09T13:35:28;22.30;1.00
7214;DHT22;3648;50.614;13.830;2022-09-09T13:37:58;22.40;1.00
7214;DHT22;3648;50.614;13.830;2022-09-09T13:40:26;22.40;1.00
7214;DHT22;3648;50.614;13.830;2022-09-09T13:42:57;22.50;1.00
7214;DHT22;3648;50.614;13.830;2022-09-09T13:45:26;22.50;1.00
7214;DHT22;3648;50.614;13.830;2022-09-09T13:47:54;22.50;1.00
7214;DHT22;3648;50.614;13.830;2022-09-09T13:50:24;22.60;1.00
7214;DHT22;3648;50.614;13.830;2022-09-09T13:52:55;22.70;1.00
7214;DHT22;3648;50.614;13.830;2022-09-09T13:55:26;22.80;1.00
7214;DHT22;3648;50.614;13.830;2022-09-09T13:57:55;22.80;1.00
7214;DHT22;3648;50.614;13.830;2022-09-09T14:00:23;22.90;1.00
7214;DHT22;3648;50.614;13.830;2022-09-09T14:02:51;22.90;1.00
7214;DHT22;3648;50.614;13.830;2022-09-09T14:05:21;22.90;1.00
7214;DHT22;3648;50.614;13.830;2022-09-09T14:07:49;22.90;1.00
7214;DHT22;3648;50.614;13.830;2022-09-09T14:10:16;22.90;1.00
7214;DHT22;3648;50.614;13.830;2022-09-09T14:12:45;23.00;1.00
7214;DHT22;3648;50.614;13.830;2022-09-09T14:15:13;22.90;1.00
7214;DHT22;3648;50.614;13.830;2022-09-09T14:17:40;23.00;1.00
7214;DHT22;3648;50.614;13.830;2022-09-09T14:20:08;23.10;1.00
7214;DHT22;3648;50.614;13.830;2022-09-09T14:22:37;23.10;1.00
7214;DHT22;3648;50.614;13.830;2022-09-09T14:25:07;23.00;1.00
7214;DHT22;3648;50.614;13.830;2022-09-09T14:27:34;22.90;1.00
7214;DHT22;3648;50.614;13.830;2022-09-09T14:30:04;23.00;1.00
7214;DHT22;3648;50.614;13.830;2022-09-09T14:32:31;23.10;1.00
7214;DHT22;3648;50.614;13.830;2022-09-09T14:34:59;23.10;1.00
7214;DHT22;3648;50.614;13.830;2022-09-09T14:37:27;23.20;1.00
7214;DHT22;3648;50.614;13.830;2022-09-09T14:39:56;23.10;1.00
7214;DHT22;3648;50.614;13.830;2022-09-09T14:42:24;23.10;1.00
7214;DHT22;3648;50.614;13.830;2022-09-09T14:44:51;23.10;1.00
7214;DHT22;3648;50.614;13.830;2022-09-09T14:47:20;23.00;1.00
7214;DHT22;3648;50.614;13.830;2022-09-09T14:49:47;23.00;1.00
7214;DHT22;3648;50.614;13.830;2022-09-09T14:52:15;23.00;1.00
7214;DHT22;3648;50.614;13.830;2022-09-09T14:54:43;23.00;1.00
7214;DHT22;3648;50.614;13.830;2022-09-09T14:57:10;22.80;1.00
7214;DHT22;3648;50.614;13.830;2022-09-09T14:59:37;22.70;1.00
7214;DHT22;3648;50.614;13.830;2022-09-09T15:02:04;22.60;1.00
7214;DHT22;3648;50.614;13.830;2022-09-09T15:04:33;22.40;1.00
7214;DHT22;3648;50.614;13.830;2022-09-09T15:07:01;22.40;1.00
7214;DHT22;3648;50.614;13.830;2022-09-09T15:09:28;22.30;1.00
7214;DHT22;3648;50.614;13.830;2022-09-09T15:11:55;22.20;1.00
7214;DHT22;3648;50.614;13.830;2022-09-09T15:14:23;22.10;1.00
7214;DHT22;3648;50.614;13.830;2022-09-09T15:16:51;22.10;1.00
7214;DHT22;3648;50.614;13.830;2022-09-09T15:19:19;22.00;1.00
7214;DHT22;3648;50.614;13.830;2022-09-09T15:21:49;22.00;1.00
7214;DHT22;3648;50.614;13.830;2022-09-09T15:24:17;21.90;1.00
7214;DHT22;3648;50.614;13.830;2022-09-09T15:26:45;21.90;1.00
7214;DHT22;3648;50.614;13.830;2022-09-09T15:29:16;21.80;1.00
7214;DHT22;3648;50.614;13.830;2022-09-09T15:31:45;21.70;1.00
7214;DHT22;3648;50.614;13.830;2022-09-09T15:34:13;21.60;1.00
7214;DHT22;3648;50.614;13.830;2022-09-09T15:36:42;21.60;1.00
7214;DHT22;3648;50.614;13.830;2022-09-09T15:39:12;21.50;1.00
7214;DHT22;3648;50.614;13.830;2022-09-09T15:41:41;21.50;1.00
7214;DHT22;3648;50.614;13.830;2022-09-09T15:44:09;21.40;1.00
7214;DHT22;3648;50.614;13.830;2022-09-09T15:46:38;21.30;1.00
7214;DHT22;3648;50.614;13.830;2022-09-09T15:49:07;21.20;1.00
7214;DHT22;3648;50.614;13.830;2022-09-09T15:51:36;21.20;1.00
7214;DHT22;3648;50.614;13.830;2022-09-09T15:54:04;21.10;1.00
7214;DHT22;3648;50.614;13.830;2022-09-09T15:56:34;21.10;1.00
7214;DHT22;3648;50.614;13.830;2022-09-09T15:59:02;21.00;1.00
7214;DHT22;3648;50.614;13.830;2022-09-09T16:01:30;21.00;1.00
7214;DHT22;3648;50.614;13.830;2022-09-09T16:03:59;20.90;1.00
7214;DHT22;3648;50.614;13.830;2022-09-09T16:06:28;20.90;1.00
7214;DHT22;3648;50.614;13.830;2022-09-09T16:08:57;20.80;1.00
7214;DHT22;3648;50.614;13.830;2022-09-09T16:11:28;20.80;1.00
7214;DHT22;3648;50.614;13.830;2022-09-09T16:13:59;20.70;1.00
7214;DHT22;3648;50.614;13.830;2022-09-09T16:16:28;20.70;1.00
7214;DHT22;3648;50.614;13.830;2022-09-09T16:18:57;20.60;1.00
7214;DHT22;3648;50.614;13.830;2022-09-09T16:21:27;20.60;1.00
7214;DHT22;3648;50.614;13.830;2022-09-09T16:23:56;20.50;1.00
7214;DHT22;3648;50.614;13.830;2022-09-09T16:26:25;20.40;1.00
7214;DHT22;3648;50.614;13.830;2022-09-09T16:28:53;20.40;1.00